CST,Max TemperatureF,Mean TemperatureF,Min TemperatureF,Max Dew PointF,MeanDew PointF,Min DewpointF,Max Humidity, Mean Humidity, Min Humidity, Max Sea Level PressureIn, Mean Sea Level PressureIn, Min Sea Level PressureIn, Max VisibilityMiles, Mean VisibilityMiles, Min VisibilityMiles, Max Wind SpeedMPH, Mean Wind SpeedMPH, Max Gust SpeedMPH,PrecipitationIn, CloudCover, Events, WindDirDegrees
2013-2-1,25,12,-1,15,2,-7,77,67,56,30.51,30.39,30.18,10,10,10,16,8,23,0.00,4,,234
2013-2-2,29,26,23,25,20,14,100,80,60,30.20,30.11,30.02,10,6,0,18,8,24,0.11,6,Fog-Snow,264
2013-2-3,34,28,22,25,18,13,100,72,43,30.26,30.11,29.93,10,10,5,23,10,32,0.00,2,,262
2013-2-4,36,26,16,26,21,14,92,78,63,30.02,29.93,29.77,10,8,5,20,7,25,0.00,2,,347
2013-2-5,49,35,20,31,25,19,100,75,50,30.16,30.00,29.93,10,8,4,17,7,23,0.00,2,,261
2013-2-6,49,36,22,35,28,21,92,74,56,30.20,30.10,29.98,10,7,2,18,8,23,T,1,,153
2013-2-7,45,38,31,42,35,28,100,83,65,30.18,29.98,29.89,10,4,1,18,8,41,0.51,7,Rain,314
2013-2-8,31,30,28,28,25,24,92,89,85,30.40,30.34,30.19,10,8,5,20,8,24,0.00,8,,52
2013-2-9,39,34,28,33,28,25,92,84,75,30.34,30.17,29.92,10,7,3,20,13,24,0.10,6,Rain,143
2013-2-10,58,47,35,48,36,22,100,72,43,29.90,29.63,29.41,10,6,2,33,18,47,0.27,7,Rain-Thunderstorm,177
2013-2-11,44,34,24,25,23,20,81,63,45,30.18,30.03,29.78,10,10,9,33,15,47,0.00,2,,283
2013-2-12,43,31,18,26,22,16,100,73,45,30.19,30.09,29.97,10,8,4,9,4,13,0.00,0,,233
2013-2-13,49,37,24,30,26,21,88,65,42,29.93,29.85,29.79,10,10,7,16,7,20,0.00,0,,240
2013-2-14,49,40,30,30,27,23,82,64,45,30.15,29.97,29.79,10,10,10,21,10,30,0.00,2,,294
2013-2-15,35,25,15,22,12,8,75,55,35,30.35,30.30,30.17,10,10,10,20,9,26,0.00,2,,321
2013-2-16,36,23,10,19,13,7,88,65,41,30.33,30.25,30.16,10,10,10,14,5,18,0.00,1,,268
2013-2-17,48,36,23,27,23,19,88,63,37,30.16,30.00,29.79,10,10,9,21,11,25,0.00,2,,136
2013-2-18,54,38,22,46,31,14,92,73,53,29.97,29.68,29.53,10,7,1,28,15,37,0.40,5,Rain-Snow,273
2013-2-19,27,21,14,14,8,3,74,56,38,30.38,30.17,29.94,10,10,10,24,14,33,0.00,3,,297
2013-2-20,22,14,5,12,5,0,83,68,52,30.50,30.39,30.29,10,10,10,13,8,20,0.00,2,,44
2013-2-21,26,21,16,25,19,11,92,83,74,30.35,29.97,29.78,10,2,0,23,14,31,0.76,7,Fog-Snow,84
2013-2-22,28,23,17,27,20,12,100,82,63,30.07,29.90,29.75,10,8,2,17,9,25,T,7,Snow,244
2013-2-23,30,17,4,17,12,2,92,73,53,30.08,30.04,30.01,10,8,4,13,5,15,0.00,0,,232
2013-2-24,38,24,10,23,18,11,96,75,54,30.12,30.08,30.04,10,8,4,9,4,10,0.00,0,,124
2013-2-25,37,29,20,31,25,17,92,78,64,30.09,29.97,29.76,10,6,0,24,10,30,0.04,3,Fog-Snow,53
2013-2-26,33,32,31,31,29,28,100,91,82,29.75,29.63,29.51,6,2,0,31,18,38,0.95,8,Fog-Snow,6
2013-2-27,31,29,27,29,26,24,92,85,78,29.97,29.82,29.72,9,2,0,17,12,23,0.21,8,Fog-Snow,301
2013-2-28,33,30,26,26,23,21,92,81,69,30.18,30.10,29.94,10,9,7,18,10,26,T,8,,318